Time;durP1;ratioP1;P1;durP2;ratioP2;P2;SDS_P1;SDS_P2;PMS_P1;PMS_P2;Temp;Humidity;BMP_temperature;BMP_pressure;BME280_temperature;BME280_humidity;BME280_pressure;Samples;Min_cycle;Max_cycle;Signal;HPM_P1;HPM_P2
2022/03/13 00:01:51;;;;;;;15.00;12.20;;;7.30;99.90;;;;;;5074190;28;20522;-60
2022/03/13 00:04:19;;;;;;;15.40;11.70;;;7.20;99.90;;;;;;5066072;28;20568;-60
2022/03/13 00:06:50;;;;;;;14.40;11.00;;;7.20;99.90;;;;;;5059964;28;20458;-59
2022/03/13 00:09:27;;;;;;;13.63;12.20;;;7.10;99.90;;;;;;5059587;28;20504;-60
2022/03/13 00:11:54;;;;;;;14.90;11.97;;;7.00;99.90;;;;;;5059284;28;20523;-60
2022/03/13 00:14:26;;;;;;;13.43;11.40;;;7.10;99.90;;;;;;5059942;28;20500;-60
2022/03/13 00:16:54;;;;;;;14.10;11.93;;;7.20;99.90;;;;;;5059584;28;20559;-59
2022/03/13 00:19:22;;;;;;;15.10;12.40;;;7.20;99.90;;;;;;5061323;28;20650;-60
2022/03/13 00:21:53;;;;;;;14.30;11.83;;;7.10;99.90;;;;;;5079832;28;20507;-60
2022/03/13 00:24:25;;;;;;;13.23;10.63;;;7.10;99.90;;;;;;5064299;28;20524;-60
2022/03/13 00:26:53;;;;;;;15.50;11.40;;;7.20;99.90;;;;;;5071958;28;20788;-58
2022/03/13 00:29:21;;;;;;;13.97;11.40;;;7.20;99.90;;;;;;5078643;28;20467;-58
2022/03/13 00:31:50;;;;;;;13.23;11.83;;;7.20;99.90;;;;;;5079475;28;20468;-60
2022/03/13 00:34:17;;;;;;;14.40;11.80;;;7.20;99.90;;;;;;5079279;28;20497;-57
2022/03/13 00:36:44;;;;;;;11.97;10.77;;;7.10;99.90;;;;;;5079339;28;20467;-56
2022/03/13 00:39:14;;;;;;;13.57;10.60;;;7.00;99.90;;;;;;5079532;28;20468;-58
2022/03/13 00:41:42;;;;;;;12.57;10.67;;;7.10;99.90;;;;;;5079322;28;20930;-56
2022/03/13 00:44:14;;;;;;;14.30;11.00;;;7.10;99.90;;;;;;5075607;28;20456;-57
2022/03/13 00:46:47;;;;;;;15.80;12.13;;;7.00;99.90;;;;;;5059424;28;20875;-58
2022/03/13 00:49:17;;;;;;;14.57;12.33;;;6.80;99.90;;;;;;5058800;28;20466;-58
2022/03/13 00:51:51;;;;;;;13.50;10.53;;;6.70;99.90;;;;;;5059458;28;20552;-58
2022/03/13 00:54:21;;;;;;;15.70;12.20;;;6.50;99.90;;;;;;5058296;28;20497;-60
2022/03/13 00:56:48;;;;;;;12.27;10.97;;;6.40;99.90;;;;;;5059203;28;20894;-60
2022/03/13 00:59:18;;;;;;;14.60;11.53;;;6.40;99.90;;;;;;5059228;28;20458;-56
2022/03/13 01:01:49;;;;;;;16.40;11.97;;;6.20;99.90;;;;;;5059029;28;20466;-53
2022/03/13 01:04:22;;;;;;;15.13;11.63;;;6.10;99.90;;;;;;5058845;28;20461;-54
2022/03/13 01:06:49;;;;;;;19.73;12.27;;;6.10;99.90;;;;;;5058781;28;20462;-59
2022/03/13 01:09:19;;;;;;;13.70;11.50;;;6.10;99.90;;;;;;5059006;28;20883;-56
2022/03/13 01:11:46;;;;;;;12.97;11.50;;;6.00;99.90;;;;;;5059245;28;20469;-58
2022/03/13 01:14:13;;;;;;;12.90;11.57;;;5.90;99.90;;;;;;5077750;28;20489;-58
2022/03/13 01:16:41;;;;;;;14.60;11.97;;;5.90;99.90;;;;;;5077636;28;20492;-60
2022/03/13 01:19:10;;;;;;;12.87;11.20;;;5.90;99.90;;;;;;5070244;28;20513;-60
2022/03/13 01:21:44;;;;;;;13.97;11.50;;;5.90;99.90;;;;;;5078482;28;20540;-60
2022/03/13 01:24:45;;;;;;;12.43;11.07;;;6.00;99.90;;;;;;5078134;28;20484;-60
2022/03/13 01:27:15;;;;;;;13.20;10.80;;;6.00;99.90;;;;;;5056724;28;20532;-58
2022/03/13 01:29:44;;;;;;;14.20;10.83;;;6.10;99.90;;;;;;5078693;28;20858;-60
2022/03/13 01:32:12;;;;;;;13.87;10.80;;;6.10;99.90;;;;;;5078123;28;20511;-58
2022/03/13 01:34:51;;;;;;;13.20;11.30;;;6.10;99.90;;;;;;5060227;28;21012;-60
2022/03/13 01:37:32;;;;;;;13.70;10.60;;;6.00;99.90;;;;;;5058681;28;20568;-60
2022/03/13 01:40:01;;;;;;;14.00;10.53;;;6.00;99.90;;;;;;5057842;28;20458;-58
2022/03/13 01:42:31;;;;;;;11.60;10.40;;;6.00;99.90;;;;;;5058192;28;20512;-60
2022/03/13 01:44:59;;;;;;;13.17;11.13;;;5.90;99.90;;;;;;5058161;28;20461;-60
2022/03/13 01:47:31;;;;;;;11.67;10.10;;;5.90;99.90;;;;;;5058372;28;20468;-58
2022/03/13 01:50:10;;;;;;;13.07;10.47;;;5.90;99.90;;;;;;5057538;28;20524;-60
2022/03/13 01:52:40;;;;;;;12.90;11.07;;;5.90;99.90;;;;;;5058037;28;20458;-60
2022/03/13 01:55:14;;;;;;;13.77;10.50;;;5.80;99.90;;;;;;5058149;28;20837;-60
2022/03/13 01:57:50;;;;;;;14.70;10.80;;;5.80;99.90;;;;;;5069416;28;20465;-59
2022/03/13 02:00:20;;;;;;;13.97;10.77;;;5.80;99.90;;;;;;5077751;28;20499;-60
2022/03/13 02:02:48;;;;;;;13.33;10.50;;;5.70;99.90;;;;;;5058566;28;20528;-60
2022/03/13 02:05:37;;;;;;;12.57;11.27;;;5.60;99.90;;;;;;5057719;28;20466;-57
2022/03/13 02:08:19;;;;;;;10.97;9.60;;;5.60;99.90;;;;;;5056866;28;20471;-60
2022/03/13 02:10:51;;;;;;;15.43;11.20;;;5.60;99.90;;;;;;5057270;28;20503;-60
2022/03/13 02:13:20;;;;;;;14.33;10.40;;;5.50;99.90;;;;;;5057481;28;20494;-60
2022/03/13 02:15:56;;;;;;;15.53;10.63;;;5.60;99.90;;;;;;5060026;28;20490;-60
2022/03/13 02:18:23;;;;;;;12.50;10.07;;;5.50;99.90;;;;;;5077200;28;20554;-60
2022/03/13 02:20:50;;;;;;;12.63;10.07;;;5.60;99.90;;;;;;5077402;28;20461;-60
2022/03/13 02:23:23;;;;;;;12.07;9.83;;;5.80;99.90;;;;;;5059851;28;20888;-60
2022/03/13 02:25:52;;;;;;;12.27;10.97;;;5.80;99.90;;;;;;5060861;28;20503;-60
2022/03/13 02:28:20;;;;;;;12.27;9.90;;;6.00;99.90;;;;;;5075543;28;20465;-60
2022/03/13 02:30:51;;;;;;;12.33;9.90;;;6.10;99.90;;;;;;5068771;28;20521;-60
2022/03/13 02:33:22;;;;;;;11.00;9.70;;;6.00;99.90;;;;;;5075728;28;20493;-59
2022/03/13 02:35:59;;;;;;;14.10;10.23;;;6.00;99.90;;;;;;5057560;28;20494;-60
2022/03/13 02:38:32;;;;;;;12.20;9.73;;;5.90;99.90;;;;;;5060964;28;20460;-58
2022/03/13 02:41:00;;;;;;;11.27;9.70;;;5.80;99.90;;;;;;5077525;28;20488;-60
2022/03/13 02:43:29;;;;;;;15.60;10.90;;;5.80;99.90;;;;;;5067737;28;20523;-54
2022/03/13 02:45:56;;;;;;;14.30;10.23;;;5.70;99.90;;;;;;5056489;28;20893;-56
2022/03/13 02:48:26;;;;;;;13.70;11.20;;;5.70;99.90;;;;;;5057200;28;20514;-60
2022/03/13 02:50:55;;;;;;;13.23;10.67;;;5.70;99.90;;;;;;5056956;28;20468;-54
2022/03/13 02:53:25;;;;;;;10.70;9.60;;;5.60;99.90;;;;;;5067774;28;20889;-60
2022/03/13 02:56:07;;;;;;;12.70;10.00;;;5.50;99.90;;;;;;5076890;28;20464;-60
2022/03/13 02:58:39;;;;;;;20.20;13.83;;;5.50;99.90;;;;;;5076238;28;20890;-60
2022/03/13 03:01:06;;;;;;;16.33;11.20;;;5.50;99.90;;;;;;5077145;28;20507;-59
2022/03/13 03:03:36;;;;;;;14.30;9.70;;;5.40;99.90;;;;;;5062349;28;20956;-60
2022/03/13 03:06:08;;;;;;;11.27;9.93;;;5.30;99.90;;;;;;5056939;28;20969;-60
2022/03/13 03:08:37;;;;;;;11.33;10.23;;;5.30;99.90;;;;;;5057278;28;20462;-57
2022/03/13 03:11:06;;;;;;;11.57;10.30;;;5.20;99.90;;;;;;5056524;28;20470;-57
2022/03/13 03:13:36;;;;;;;12.10;10.80;;;5.30;99.90;;;;;;5056891;28;20486;-60
2022/03/13 03:16:08;;;;;;;13.17;9.90;;;5.30;99.90;;;;;;5056840;28;20493;-60
2022/03/13 03:18:37;;;;;;;13.90;10.60;;;5.20;99.90;;;;;;5056941;28;20770;-56
2022/03/13 03:21:08;;;;;;;11.03;9.40;;;5.10;99.90;;;;;;5072893;28;20458;-56
2022/03/13 03:23:37;;;;;;;12.83;10.97;;;5.20;99.90;;;;;;5069755;28;20933;-60
2022/03/13 03:26:07;;;;;;;13.03;10.70;;;5.10;99.90;;;;;;5056271;28;20568;-54
2022/03/13 03:28:35;;;;;;;14.30;10.90;;;5.00;99.90;;;;;;5061507;28;20464;-53
2022/03/13 03:31:04;;;;;;;14.73;11.30;;;5.00;99.90;;;;;;5075337;28;20821;-60
2022/03/13 03:33:42;;;;;;;12.30;10.20;;;5.00;99.90;;;;;;5076247;28;20894;-60
2022/03/13 03:36:22;;;;;;;14.57;10.97;;;5.20;99.90;;;;;;5076243;28;20457;-60
2022/03/13 03:38:52;;;;;;;13.40;10.00;;;5.10;99.90;;;;;;5076638;28;20463;-60
2022/03/13 03:41:21;;;;;;;12.57;9.87;;;5.20;99.90;;;;;;5080688;28;20486;-60
2022/03/13 03:43:48;;;;;;;11.80;10.60;;;5.10;99.90;;;;;;5080290;28;20456;-60
2022/03/13 03:46:19;;;;;;;13.60;10.20;;;5.10;99.90;;;;;;5080260;28;20457;-60
2022/03/13 03:48:51;;;;;;;15.10;10.73;;;5.00;99.90;;;;;;5068211;28;20451;-58
2022/03/13 03:51:20;;;;;;;10.70;8.80;;;5.00;99.90;;;;;;5060450;28;20565;-60
2022/03/13 03:53:51;;;;;;;13.20;11.87;;;5.00;99.90;;;;;;5060376;28;20939;-60
2022/03/13 03:56:30;;;;;;;15.30;10.27;;;5.00;99.90;;;;;;5060382;28;20457;-60
2022/03/13 03:59:03;;;;;;;14.07;10.17;;;5.00;99.90;;;;;;5060122;28;20506;-58
2022/03/13 04:01:40;;;;;;;14.23;10.40;;;5.10;99.90;;;;;;5060282;28;20930;-60
2022/03/13 04:04:13;;;;;;;11.27;9.60;;;5.10;99.90;;;;;;5059504;28;20557;-60
2022/03/13 04:06:45;;;;;;;12.63;9.10;;;5.20;99.90;;;;;;5059842;28;20469;-57
2022/03/13 04:09:17;;;;;;;11.80;9.40;;;5.20;99.90;;;;;;5059926;28;20961;-57
2022/03/13 04:11:52;;;;;;;11.63;9.93;;;5.20;99.90;;;;;;5060231;28;20515;-59
2022/03/13 04:14:20;;;;;;;14.90;10.70;;;5.10;99.90;;;;;;5059817;28;20546;-55
2022/03/13 04:16:50;;;;;;;13.23;9.83;;;5.10;99.90;;;;;;5059024;28;20497;-56
2022/03/13 04:19:21;;;;;;;11.37;10.17;;;5.00;99.90;;;;;;5061113;28;20766;-59
2022/03/13 04:21:51;;;;;;;12.30;9.70;;;4.90;99.90;;;;;;5078953;28;20461;-60
2022/03/13 04:24:21;;;;;;;13.90;10.80;;;4.80;99.90;;;;;;5079345;28;20446;-58
2022/03/13 04:26:51;;;;;;;13.20;10.50;;;4.80;99.90;;;;;;5079028;28;20476;-57
2022/03/13 04:29:19;;;;;;;14.83;9.30;;;5.00;99.90;;;;;;5078445;28;20519;-60
2022/03/13 04:31:52;;;;;;;11.37;9.30;;;5.00;99.90;;;;;;5077184;28;20484;-56
2022/03/13 04:34:20;;;;;;;11.97;9.87;;;5.10;99.90;;;;;;5077223;28;20488;-57
2022/03/13 04:36:48;;;;;;;13.40;9.60;;;5.00;99.90;;;;;;5059710;28;20459;-57
2022/03/13 04:39:16;;;;;;;11.37;9.17;;;5.20;99.90;;;;;;5059507;28;20516;-53
2022/03/13 04:41:43;;;;;;;11.47;8.50;;;5.20;99.90;;;;;;5059433;28;20879;-57
2022/03/13 04:44:18;;;;;;;11.87;9.90;;;5.10;99.90;;;;;;5059427;28;20466;-57
2022/03/13 04:46:45;;;;;;;12.10;9.67;;;5.00;99.90;;;;;;5058556;28;20458;-57
2022/03/13 04:49:13;;;;;;;12.50;8.87;;;4.90;99.90;;;;;;5058967;28;20523;-58
2022/03/13 04:51:41;;;;;;;10.93;9.60;;;4.80;99.90;;;;;;5059422;28;20837;-58
2022/03/13 04:54:10;;;;;;;12.60;10.07;;;4.90;99.90;;;;;;5059082;28;20559;-55
2022/03/13 04:56:40;;;;;;;12.80;9.27;;;5.00;99.90;;;;;;5058952;28;20502;-59
2022/03/13 04:59:07;;;;;;;13.13;9.80;;;4.90;99.90;;;;;;5058825;28;20515;-60
2022/03/13 05:01:36;;;;;;;10.53;9.20;;;4.70;99.90;;;;;;5058800;28;20566;-60
2022/03/13 05:04:03;;;;;;;16.83;10.73;;;4.60;99.90;;;;;;5058360;28;20552;-60
2022/03/13 05:06:35;;;;;;;12.83;10.20;;;4.60;99.90;;;;;;5059195;28;20749;-60
2022/03/13 05:09:02;;;;;;;13.43;9.43;;;4.40;99.90;;;;;;5059188;28;20474;-60
2022/03/13 05:11:30;;;;;;;11.50;9.70;;;4.40;99.90;;;;;;5058981;28;20466;-60
2022/03/13 05:14:00;;;;;;;15.10;10.90;;;4.40;99.90;;;;;;5058458;28;20466;-60
2022/03/13 05:16:29;;;;;;;11.13;9.00;;;4.40;99.90;;;;;;5057962;28;20585;-60
2022/03/13 05:19:03;;;;;;;10.87;9.13;;;4.30;99.90;;;;;;5058035;28;20462;-60
2022/03/13 05:21:32;;;;;;;12.47;9.23;;;4.20;99.90;;;;;;5077368;28;20537;-59
2022/03/13 05:23:59;;;;;;;12.13;9.73;;;4.20;99.90;;;;;;5072797;28;20524;-58
2022/03/13 05:26:29;;;;;;;14.90;9.63;;;4.20;99.90;;;;;;5058544;28;20458;-56
2022/03/13 05:28:59;;;;;;;11.63;9.60;;;4.30;99.90;;;;;;5058858;28;20464;-57
2022/03/13 05:31:26;;;;;;;12.50;9.60;;;4.50;99.90;;;;;;5072686;28;20466;-58
2022/03/13 05:34:01;;;;;;;17.87;10.87;;;4.50;99.90;;;;;;5076640;28;20491;-56
2022/03/13 05:36:29;;;;;;;12.70;9.43;;;4.60;99.90;;;;;;5078720;28;20456;-57
2022/03/13 05:39:02;;;;;;;12.33;9.50;;;4.60;99.90;;;;;;5071179;28;20465;-57
2022/03/13 05:41:30;;;;;;;12.07;10.13;;;4.80;99.90;;;;;;5059010;28;20488;-57
2022/03/13 05:43:59;;;;;;;14.00;9.20;;;4.80;99.90;;;;;;5077510;28;20496;-60
2022/03/13 05:46:26;;;;;;;15.00;10.43;;;4.90;99.90;;;;;;5074409;28;20754;-60
2022/03/13 05:48:53;;;;;;;12.50;9.20;;;4.80;99.90;;;;;;5057985;28;20495;-57
2022/03/13 05:51:20;;;;;;;13.33;9.10;;;4.80;99.90;;;;;;5057645;28;20818;-59
2022/03/13 05:53:49;;;;;;;11.17;9.60;;;4.80;99.90;;;;;;5058849;28;20462;-60
2022/03/13 05:56:16;;;;;;;12.80;10.20;;;4.90;99.90;;;;;;5075767;28;20549;-57
2022/03/13 05:58:46;;;;;;;11.30;8.83;;;4.80;99.90;;;;;;5065072;28;20466;-55
2022/03/13 06:01:18;;;;;;;11.87;9.20;;;4.90;99.90;;;;;;5057173;28;20462;-56
2022/03/13 06:03:53;;;;;;;12.67;9.57;;;5.00;99.90;;;;;;5062872;28;20462;-56
2022/03/13 06:06:20;;;;;;;13.67;9.53;;;5.00;99.90;;;;;;5077287;28;20559;-60
2022/03/13 06:08:51;;;;;;;10.80;8.93;;;5.00;99.90;;;;;;5073693;28;20474;-59
2022/03/13 06:11:18;;;;;;;13.40;9.77;;;5.00;99.90;;;;;;5075510;28;20458;-60
2022/03/13 06:13:50;;;;;;;15.73;9.43;;;5.10;99.90;;;;;;5070668;28;20466;-60
2022/03/13 06:16:21;;;;;;;12.67;10.47;;;5.30;99.90;;;;;;5054420;28;20571;-60
2022/03/13 06:18:54;;;;;;;10.63;9.40;;;5.40;99.90;;;;;;5057303;28;20463;-60
2022/03/13 06:21:24;;;;;;;11.87;9.40;;;5.40;99.90;;;;;;5069452;28;20523;-60
2022/03/13 06:23:55;;;;;;;12.23;9.50;;;5.50;99.90;;;;;;5059558;28;20512;-60
2022/03/13 06:26:25;;;;;;;10.60;8.90;;;5.50;99.90;;;;;;5056873;28;20460;-60
2022/03/13 06:28:52;;;;;;;10.90;9.17;;;5.60;99.90;;;;;;5056627;28;20466;-60
2022/03/13 06:31:19;;;;;;;11.20;9.23;;;5.70;99.90;;;;;;5062694;28;20467;-58
2022/03/13 06:33:51;;;;;;;10.17;9.10;;;5.70;99.90;;;;;;5072499;28;20515;-57
2022/03/13 06:36:23;;;;;;;11.53;9.30;;;5.90;99.90;;;;;;5064276;28;20498;-60
2022/03/13 06:38:52;;;;;;;11.07;9.90;;;5.90;99.90;;;;;;5059962;28;20460;-60
2022/03/13 06:41:21;;;;;;;11.73;8.53;;;6.10;99.90;;;;;;5062757;28;20518;-60
2022/03/13 06:43:48;;;;;;;13.03;10.20;;;6.10;99.90;;;;;;5057030;28;20466;-61
2022/03/13 06:46:18;;;;;;;12.10;9.20;;;6.20;99.90;;;;;;5070677;28;20511;-54
2022/03/13 06:48:49;;;;;;;11.07;9.40;;;6.30;99.90;;;;;;5060129;28;20524;-56
2022/03/13 06:51:28;;;;;;;12.10;9.40;;;6.30;99.90;;;;;;5056485;28;20462;-57
2022/03/13 06:53:58;;;;;;;16.33;9.43;;;6.50;99.90;;;;;;5055792;28;20497;-57
2022/03/13 06:56:26;;;;;;;10.40;9.30;;;6.60;99.90;;;;;;5055619;28;20497;-57
2022/03/13 06:59:02;;;;;;;9.67;8.43;;;6.60;99.90;;;;;;5055104;28;20524;-60
2022/03/13 07:01:36;;;;;;;11.40;9.20;;;6.70;99.90;;;;;;5066336;28;20468;-59
2022/03/13 07:04:05;;;;;;;12.17;8.80;;;6.90;99.90;;;;;;5072409;28;20465;-60
2022/03/13 07:06:37;;;;;;;11.47;9.50;;;7.10;99.90;;;;;;5056111;28;20461;-60
2022/03/13 07:09:06;;;;;;;12.17;9.50;;;7.20;99.90;;;;;;5056873;28;20558;-58
2022/03/13 07:11:37;;;;;;;14.07;9.40;;;7.40;99.90;;;;;;5056895;28;20466;-60
2022/03/13 07:14:11;;;;;;;10.70;9.60;;;7.50;99.90;;;;;;5068229;28;20461;-59
2022/03/13 07:16:38;;;;;;;10.53;9.40;;;7.70;99.90;;;;;;5077148;28;20941;-58
2022/03/13 07:19:14;;;;;;;11.07;9.30;;;7.90;99.90;;;;;;5079696;28;20767;-60
2022/03/13 07:21:41;;;;;;;11.93;8.47;;;8.00;99.90;;;;;;5072333;28;20456;-60
2022/03/13 07:24:12;;;;;;;10.00;8.67;;;8.10;99.90;;;;;;5074032;28;20458;-60
2022/03/13 07:26:41;;;;;;;13.00;10.20;;;8.00;99.90;;;;;;5073034;28;20544;-59
2022/03/13 07:29:08;;;;;;;12.20;9.80;;;8.10;99.90;;;;;;5063599;28;20482;-60
2022/03/13 07:31:35;;;;;;;11.90;10.33;;;8.10;99.90;;;;;;5081762;28;20458;-59
2022/03/13 07:34:02;;;;;;;10.70;9.27;;;8.10;99.90;;;;;;5073337;28;20502;-60
2022/03/13 07:36:34;;;;;;;13.43;10.50;;;8.20;99.90;;;;;;5081495;28;20566;-59
2022/03/13 07:39:03;;;;;;;12.70;11.03;;;8.30;99.90;;;;;;5067214;28;20486;-58
2022/03/13 07:41:33;;;;;;;12.27;9.33;;;8.50;99.90;;;;;;5071439;28;20487;-59
2022/03/13 07:44:05;;;;;;;11.77;9.80;;;8.70;99.90;;;;;;5064385;28;20786;-59
2022/03/13 07:46:32;;;;;;;12.73;10.20;;;9.00;99.90;;;;;;5061627;28;20528;-59
2022/03/13 07:48:59;;;;;;;13.00;9.23;;;9.30;99.90;;;;;;5066145;28;20473;-59
2022/03/13 07:51:26;;;;;;;11.57;10.10;;;9.70;99.90;;;;;;5062076;28;20462;-59
2022/03/13 07:53:56;;;;;;;16.03;11.00;;;9.70;99.90;;;;;;5074933;28;20469;-58
2022/03/13 07:56:27;;;;;;;11.17;10.07;;;9.60;99.90;;;;;;5066330;28;20554;-57
2022/03/13 07:59:00;;;;;;;11.53;10.33;;;9.60;99.90;;;;;;5077682;28;20915;-58
2022/03/13 08:01:27;;;;;;;11.40;10.30;;;9.70;99.90;;;;;;5072484;28;20818;-58
2022/03/13 08:04:04;;;;;;;11.33;10.13;;;9.70;99.90;;;;;;5080690;28;20527;-57
2022/03/13 08:06:35;;;;;;;15.07;10.47;;;9.70;99.90;;;;;;5068071;28;20463;-54
2022/03/13 08:09:02;;;;;;;15.07;11.20;;;9.70;99.90;;;;;;5067864;28;20516;-56
2022/03/13 08:11:34;;;;;;;13.10;10.87;;;9.70;99.90;;;;;;5070470;28;20502;-56
2022/03/13 08:14:03;;;;;;;11.60;9.80;;;9.60;99.90;;;;;;5067311;28;20461;-58
2022/03/13 08:16:30;;;;;;;12.63;10.50;;;9.70;99.90;;;;;;5070901;28;20550;-58
2022/03/13 08:19:03;;;;;;;11.97;10.53;;;9.90;99.90;;;;;;5069593;28;20762;-59
2022/03/13 08:21:37;;;;;;;14.33;11.80;;;10.20;99.90;;;;;;5070055;28;20910;-58
2022/03/13 08:24:15;;;;;;;11.87;10.67;;;10.80;99.90;;;;;;5069288;28;20946;-59
2022/03/13 08:26:45;;;;;;;12.13;10.70;;;11.50;99.90;;;;;;5067738;28;20464;-57
2022/03/13 08:29:15;;;;;;;12.33;11.03;;;11.80;99.90;;;;;;5069475;28;20785;-58
2022/03/13 08:31:42;;;;;;;12.53;10.97;;;12.10;99.90;;;;;;5067418;28;20552;-58
2022/03/13 08:34:12;;;;;;;11.90;10.70;;;12.60;99.90;;;;;;5067767;28;20469;-58
2022/03/13 08:36:46;;;;;;;12.30;10.93;;;12.90;99.90;;;;;;5068702;28;20795;-58
2022/03/13 08:39:17;;;;;;;15.73;12.43;;;13.20;99.90;;;;;;5067061;28;20457;-59
2022/03/13 08:42:09;;;;;;;14.03;12.10;;;13.40;99.90;;;;;;5067161;28;20775;-58
2022/03/13 08:44:40;;;;;;;11.50;10.40;;;13.30;99.90;;;;;;5067603;28;20884;-59
2022/03/13 08:47:10;;;;;;;15.00;11.57;;;13.20;99.90;;;;;;5066968;28;20466;-59
2022/03/13 08:49:42;;;;;;;19.63;12.73;;;13.50;99.90;;;;;;5068585;28;20454;-59
2022/03/13 08:52:13;;;;;;;13.47;11.60;;;13.70;99.90;;;;;;5067182;28;20508;-59
2022/03/13 08:54:46;;;;;;;13.17;11.80;;;13.70;99.90;;;;;;5069059;28;20935;-59
2022/03/13 08:57:16;;;;;;;13.33;12.00;;;13.70;99.90;;;;;;5067773;28;20486;-58
2022/03/13 08:59:54;;;;;;;12.70;11.47;;;13.90;99.90;;;;;;5067056;28;20462;-59
2022/03/13 09:02:22;;;;;;;15.97;13.43;;;13.90;99.90;;;;;;5066485;28;20504;-59
2022/03/13 09:04:53;;;;;;;14.90;12.50;;;13.80;99.90;;;;;;5069791;28;20457;-58
2022/03/13 09:07:25;;;;;;;14.13;12.63;;;13.80;99.90;;;;;;5066072;28;20908;-59
2022/03/13 09:09:52;;;;;;;14.60;13.10;;;14.20;99.90;;;;;;5068356;28;20457;-59
2022/03/13 09:12:22;;;;;;;15.03;13.53;;;14.50;99.90;;;;;;5065215;28;20458;-56
2022/03/13 09:14:50;;;;;;;16.43;14.00;;;14.40;99.90;;;;;;5065733;28;20469;-58
2022/03/13 09:17:18;;;;;;;15.13;13.53;;;14.00;99.90;;;;;;5058492;28;20490;-59
2022/03/13 09:19:47;;;;;;;16.50;13.47;;;14.20;99.90;;;;;;5066836;28;20462;-59
2022/03/13 09:22:18;;;;;;;15.10;13.60;;;14.10;99.90;;;;;;5068017;28;20825;-59
2022/03/13 09:24:50;;;;;;;13.83;12.33;;;14.30;99.90;;;;;;5065392;28;20466;-59
2022/03/13 09:27:20;;;;;;;15.63;14.13;;;14.30;99.90;;;;;;5068180;28;20456;-59
2022/03/13 09:29:54;;;;;;;14.67;12.93;;;14.10;99.90;;;;;;5065015;28;20461;-59
2022/03/13 09:32:21;;;;;;;14.30;12.90;;;14.50;99.90;;;;;;5071795;28;20461;-59
2022/03/13 09:34:48;;;;;;;15.67;13.93;;;14.70;99.90;;;;;;5078303;28;20526;-59
2022/03/13 09:37:23;;;;;;;14.57;13.07;;;14.90;99.90;;;;;;5077217;28;20497;-59
2022/03/13 09:40:00;;;;;;;16.67;14.97;;;15.20;99.90;;;;;;5076287;28;20456;-58
2022/03/13 09:42:30;;;;;;;15.23;13.70;;;15.60;99.90;;;;;;5077710;28;20460;-58
2022/03/13 09:45:01;;;;;;;14.77;13.20;;;16.00;99.90;;;;;;5064861;28;20963;-59
2022/03/13 09:47:31;;;;;;;15.07;13.53;;;16.20;99.90;;;;;;5065798;28;20516;-57
2022/03/13 09:49:59;;;;;;;16.73;13.70;;;16.20;99.90;;;;;;5064738;28;20465;-59
2022/03/13 09:52:26;;;;;;;18.20;15.23;;;16.30;99.90;;;;;;5065491;28;20462;-59
2022/03/13 09:54:53;;;;;;;15.90;14.20;;;16.20;99.90;;;;;;5065520;28;20457;-57
2022/03/13 09:57:20;;;;;;;14.30;12.90;;;16.70;99.90;;;;;;5064796;28;20792;-59
2022/03/13 09:59:51;;;;;;;15.70;14.10;;;16.80;99.90;;;;;;5066473;28;20520;-59
2022/03/13 10:02:33;;;;;;;16.20;14.60;;;16.80;99.90;;;;;;5064632;28;20519;-59
2022/03/13 10:05:09;;;;;;;16.37;14.70;;;17.20;99.90;;;;;;5061785;28;20480;-58
2022/03/13 10:07:56;;;;;;;16.50;14.90;;;17.50;99.90;;;;;;5067337;28;20449;-57
2022/03/13 10:10:27;;;;;;;16.77;15.20;;;17.40;99.90;;;;;;5064647;28;20463;-59
2022/03/13 10:12:55;;;;;;;18.00;14.10;;;17.30;99.90;;;;;;5064458;28;20459;-59
2022/03/13 10:15:28;;;;;;;16.00;14.40;;;17.70;99.90;;;;;;5066967;28;20457;-59
2022/03/13 10:18:10;;;;;;;16.20;14.70;;;17.80;99.90;;;;;;5062434;28;20950;-59
2022/03/13 10:20:42;;;;;;;16.73;14.93;;;17.80;99.90;;;;;;5065861;28;20525;-59
2022/03/13 10:23:11;;;;;;;14.83;13.33;;;18.00;99.90;;;;;;5066856;28;20465;-59
2022/03/13 10:25:41;;;;;;;15.33;13.73;;;17.90;99.90;;;;;;5065597;28;20457;-59
2022/03/13 10:28:20;;;;;;;16.07;14.47;;;17.60;99.90;;;;;;5064475;28;20480;-59
2022/03/13 10:31:15;;;;;;;15.40;14.00;;;17.50;99.90;;;;;;5067096;28;20457;-59
2022/03/13 10:34:08;;;;;;;16.90;14.53;;;17.50;99.90;;;;;;5068387;28;20450;-60
2022/03/13 10:36:35;;;;;;;15.10;13.60;;;17.20;99.90;;;;;;5049839;28;20525;-60
2022/03/13 10:39:04;;;;;;;15.90;13.67;;;17.10;99.90;;;;;;5068853;28;20462;-60
2022/03/13 10:41:45;;;;;;;15.63;14.13;;;16.80;99.90;;;;;;5065757;28;20454;-59
2022/03/13 10:44:14;;;;;;;14.83;13.33;;;16.80;99.90;;;;;;5066070;28;20859;-59
2022/03/13 10:46:43;;;;;;;17.87;16.00;;;16.90;99.90;;;;;;5061449;28;20556;-60
2022/03/13 10:49:14;;;;;;;15.37;13.67;;;17.10;99.90;;;;;;5064040;28;20449;-59
2022/03/13 10:51:46;;;;;;;15.63;12.63;;;17.80;99.90;;;;;;5064484;28;21004;-60
2022/03/13 10:54:31;;;;;;;15.10;13.60;;;17.90;99.90;;;;;;5066959;28;20465;-57
2022/03/13 10:57:09;;;;;;;14.50;13.10;;;17.80;99.90;;;;;;5063865;28;20926;-59
2022/03/13 10:59:40;;;;;;;16.43;14.27;;;18.20;99.90;;;;;;5065169;28;20470;-60
2022/03/13 11:02:13;;;;;;;15.47;13.97;;;18.10;99.90;;;;;;5066355;28;20462;-60
2022/03/13 11:04:49;;;;;;;17.20;15.50;;;18.40;99.90;;;;;;5061969;28;20470;-60
2022/03/13 11:07:17;;;;;;;16.17;14.57;;;18.40;99.90;;;;;;5069176;28;20446;-56
2022/03/13 11:09:49;;;;;;;15.67;13.23;;;18.50;99.90;;;;;;5064656;28;20469;-59
2022/03/13 11:12:20;;;;;;;15.00;13.57;;;18.70;99.90;;;;;;5063475;28;20786;-59
2022/03/13 11:14:51;;;;;;;18.00;15.47;;;18.90;99.90;;;;;;5065561;28;20468;-59
2022/03/13 11:17:20;;;;;;;15.50;14.00;;;18.90;99.90;;;;;;5060067;28;20889;-60
2022/03/13 11:19:53;;;;;;;15.63;14.13;;;18.60;99.90;;;;;;5058138;28;20780;-56
2022/03/13 11:22:22;;;;;;;15.17;13.57;;;18.50;99.90;;;;;;5065536;28;20886;-60
2022/03/13 11:24:57;;;;;;;15.87;14.17;;;18.50;99.90;;;;;;5066454;28;20514;-59
2022/03/13 11:27:26;;;;;;;16.10;13.83;;;18.60;99.90;;;;;;5065841;28;20507;-59
2022/03/13 11:29:59;;;;;;;16.50;14.80;;;18.60;99.90;;;;;;5065360;28;20767;-59
2022/03/13 11:32:40;;;;;;;16.77;14.83;;;18.60;99.90;;;;;;5066313;28;20458;-60
2022/03/13 11:35:27;;;;;;;15.47;13.90;;;18.50;99.90;;;;;;5063953;28;20483;-60
2022/03/13 11:37:56;;;;;;;16.07;14.50;;;18.30;99.90;;;;;;5063797;28;20645;-59
2022/03/13 11:40:32;;;;;;;15.10;13.60;;;18.00;99.90;;;;;;5065511;28;20937;-60
2022/03/13 11:43:19;;;;;;;16.17;14.50;;;18.00;99.90;;;;;;5066628;28;20471;-60
2022/03/13 11:45:54;;;;;;;16.13;14.10;;;18.00;99.90;;;;;;5055335;28;20476;-58
2022/03/13 11:48:43;;;;;;;15.57;13.93;;;18.00;99.90;;;;;;5065022;28;20481;-60
2022/03/13 11:51:27;;;;;;;16.80;15.23;;;18.30;99.90;;;;;;5064096;28;20543;-60
2022/03/13 11:53:54;;;;;;;15.70;14.00;;;18.50;99.90;;;;;;5066519;28;20462;-60
2022/03/13 11:56:30;;;;;;;15.90;14.20;;;18.70;99.90;;;;;;5063427;28;20493;-60
2022/03/13 11:58:59;;;;;;;16.30;14.63;;;19.00;99.90;;;;;;5065782;28;20457;-60
2022/03/13 12:01:44;;;;;;;16.37;14.67;;;19.40;99.90;;;;;;5068943;28;20460;-58
2022/03/13 12:04:30;;;;;;;14.27;12.87;;;19.30;99.90;;;;;;5068295;28;20461;-60
2022/03/13 12:07:00;;;;;;;14.20;12.80;;;19.50;99.90;;;;;;5068923;28;20518;-60
2022/03/13 12:09:32;;;;;;;14.10;12.70;;;19.60;99.90;;;;;;5068138;28;20909;-59
2022/03/13 12:12:07;;;;;;;15.57;14.07;;;19.40;99.90;;;;;;5065057;28;20457;-56
2022/03/13 12:15:02;;;;;;;17.67;12.20;;;19.50;99.90;;;;;;5068400;28;20457;-60
2022/03/13 12:17:43;;;;;;;13.60;11.90;;;19.40;99.90;;;;;;5067892;28;20587;-57
2022/03/13 12:20:22;;;;;;;12.23;11.10;;;19.50;99.90;;;;;;5066155;28;20531;-59
2022/03/13 12:22:54;;;;;;;13.27;12.03;;;19.30;99.90;;;;;;5068294;28;20520;-57
2022/03/13 12:25:30;;;;;;;12.03;10.77;;;19.40;99.90;;;;;;5067039;28;20518;-60
2022/03/13 12:28:07;;;;;;;12.23;11.13;;;19.80;99.90;;;;;;5067607;28;20519;-58
2022/03/13 12:30:37;;;;;;;12.07;10.97;;;19.90;99.90;;;;;;5065153;28;20792;-59
2022/03/13 12:33:07;;;;;;;10.83;9.83;;;20.20;99.90;;;;;;5066642;28;20450;-56
2022/03/13 12:35:37;;;;;;;12.47;11.20;;;20.30;99.90;;;;;;5066332;28;20895;-61
2022/03/13 12:38:11;;;;;;;13.23;12.03;;;20.10;99.90;;;;;;5068263;28;20486;-61
2022/03/13 12:40:51;;;;;;;12.30;11.10;;;20.00;99.90;;;;;;5068231;28;20551;-61
2022/03/13 12:43:21;;;;;;;11.67;10.53;;;19.90;99.90;;;;;;5066608;28;20964;-61
2022/03/13 12:45:54;;;;;;;10.60;9.50;;;19.60;99.90;;;;;;5065021;28;20482;-61
2022/03/13 12:48:24;;;;;;;12.77;11.57;;;19.70;99.90;;;;;;5069260;28;20565;-60
2022/03/13 12:50:55;;;;;;;11.50;10.50;;;19.90;99.90;;;;;;5067314;28;20514;-61
2022/03/13 12:53:29;;;;;;;12.33;11.13;;;19.90;99.90;;;;;;5068649;28;20890;-60
2022/03/13 12:55:58;;;;;;;11.87;10.77;;;19.90;99.90;;;;;;5065460;28;20541;-59
2022/03/13 12:58:44;;;;;;;10.13;9.23;;;20.10;99.90;;;;;;5065708;28;20482;-61